sensor_id;sensor_type;location;lat;lon;timestamp;P1;durP1;ratioP1;P2;durP2;ratioP2
179;SDS011;78;48.788;9.010;2023-04-15T00:00:58;19.10;;;4.63;;
179;SDS011;78;48.788;9.010;2023-04-15T00:03:25;21.10;;;4.83;;
179;SDS011;78;48.788;9.010;2023-04-15T00:05:52;20.33;;;4.80;;
179;SDS011;78;48.788;9.010;2023-04-15T00:08:18;20.40;;;5.03;;
179;SDS011;78;48.788;9.010;2023-04-15T00:10:44;20.20;;;5.17;;
179;SDS011;78;48.788;9.010;2023-04-15T00:13:10;21.83;;;5.03;;
179;SDS011;78;48.788;9.010;2023-04-15T00:15:36;23.70;;;4.63;;
179;SDS011;78;48.788;9.010;2023-04-15T00:18:03;21.20;;;4.67;;
179;SDS011;78;48.788;9.010;2023-04-15T00:20:29;18.90;;;4.73;;
179;SDS011;78;48.788;9.010;2023-04-15T00:22:55;20.00;;;4.90;;
179;SDS011;78;48.788;9.010;2023-04-15T00:25:22;22.53;;;4.83;;
179;SDS011;78;48.788;9.010;2023-04-15T00:27:48;21.50;;;4.90;;
179;SDS011;78;48.788;9.010;2023-04-15T00:30:14;20.53;;;4.63;;
179;SDS011;78;48.788;9.010;2023-04-15T00:32:40;21.03;;;4.97;;
179;SDS011;78;48.788;9.010;2023-04-15T00:35:07;25.80;;;5.67;;
179;SDS011;78;48.788;9.010;2023-04-15T00:37:33;22.90;;;5.50;;
179;SDS011;78;48.788;9.010;2023-04-15T00:39:59;19.77;;;5.00;;
179;SDS011;78;48.788;9.010;2023-04-15T00:42:25;21.80;;;5.20;;
179;SDS011;78;48.788;9.010;2023-04-15T00:44:52;21.30;;;5.13;;
179;SDS011;78;48.788;9.010;2023-04-15T00:47:18;23.07;;;5.20;;
179;SDS011;78;48.788;9.010;2023-04-15T00:49:45;20.50;;;5.27;;
179;SDS011;78;48.788;9.010;2023-04-15T00:52:11;19.23;;;5.10;;
179;SDS011;78;48.788;9.010;2023-04-15T00:54:37;22.60;;;5.30;;
179;SDS011;78;48.788;9.010;2023-04-15T00:57:04;20.67;;;4.73;;
179;SDS011;78;48.788;9.010;2023-04-15T00:59:30;22.70;;;5.10;;
179;SDS011;78;48.788;9.010;2023-04-15T01:01:58;26.43;;;5.63;;
179;SDS011;78;48.788;9.010;2023-04-15T01:04:24;20.73;;;4.60;;
179;SDS011;78;48.788;9.010;2023-04-15T01:06:50;21.70;;;5.07;;
179;SDS011;78;48.788;9.010;2023-04-15T01:09:16;21.87;;;5.37;;
179;SDS011;78;48.788;9.010;2023-04-15T01:11:42;24.50;;;5.03;;
179;SDS011;78;48.788;9.010;2023-04-15T01:14:09;19.30;;;4.73;;
179;SDS011;78;48.788;9.010;2023-04-15T01:16:35;19.43;;;5.00;;
179;SDS011;78;48.788;9.010;2023-04-15T01:19:04;20.17;;;4.90;;
179;SDS011;78;48.788;9.010;2023-04-15T01:21:31;19.80;;;5.00;;
179;SDS011;78;48.788;9.010;2023-04-15T01:23:57;21.23;;;5.70;;
179;SDS011;78;48.788;9.010;2023-04-15T01:26:23;26.47;;;5.40;;
179;SDS011;78;48.788;9.010;2023-04-15T01:28:49;21.20;;;5.20;;
179;SDS011;78;48.788;9.010;2023-04-15T01:31:15;20.10;;;5.23;;
179;SDS011;78;48.788;9.010;2023-04-15T01:33:42;21.67;;;5.73;;
179;SDS011;78;48.788;9.010;2023-04-15T01:36:08;22.70;;;5.77;;
179;SDS011;78;48.788;9.010;2023-04-15T01:38:35;19.50;;;4.60;;
179;SDS011;78;48.788;9.010;2023-04-15T01:41:01;21.00;;;5.13;;
179;SDS011;78;48.788;9.010;2023-04-15T01:43:32;26.17;;;6.40;;
179;SDS011;78;48.788;9.010;2023-04-15T01:45:58;25.33;;;5.40;;
179;SDS011;78;48.788;9.010;2023-04-15T01:48:24;19.83;;;5.20;;
179;SDS011;78;48.788;9.010;2023-04-15T01:50:51;23.80;;;5.67;;
179;SDS011;78;48.788;9.010;2023-04-15T01:53:17;20.50;;;5.20;;
179;SDS011;78;48.788;9.010;2023-04-15T01:55:43;21.20;;;5.10;;
179;SDS011;78;48.788;9.010;2023-04-15T01:58:09;21.30;;;5.30;;
179;SDS011;78;48.788;9.010;2023-04-15T02:00:35;23.07;;;5.70;;
179;SDS011;78;48.788;9.010;2023-04-15T02:03:02;20.80;;;5.10;;
179;SDS011;78;48.788;9.010;2023-04-15T02:05:28;21.10;;;5.67;;
179;SDS011;78;48.788;9.010;2023-04-15T02:07:54;22.37;;;5.77;;
179;SDS011;78;48.788;9.010;2023-04-15T02:10:20;19.40;;;5.00;;
179;SDS011;78;48.788;9.010;2023-04-15T02:12:46;22.83;;;5.60;;
179;SDS011;78;48.788;9.010;2023-04-15T02:15:12;20.07;;;5.17;;
179;SDS011;78;48.788;9.010;2023-04-15T02:17:38;21.03;;;5.17;;
179;SDS011;78;48.788;9.010;2023-04-15T02:20:05;23.20;;;5.47;;
179;SDS011;78;48.788;9.010;2023-04-15T02:22:33;21.60;;;5.10;;
179;SDS011;78;48.788;9.010;2023-04-15T02:24:59;20.80;;;5.73;;
179;SDS011;78;48.788;9.010;2023-04-15T02:27:25;25.13;;;5.80;;
179;SDS011;78;48.788;9.010;2023-04-15T02:29:52;22.63;;;5.37;;
179;SDS011;78;48.788;9.010;2023-04-15T02:32:18;24.27;;;5.03;;
179;SDS011;78;48.788;9.010;2023-04-15T02:34:47;23.40;;;5.93;;
179;SDS011;78;48.788;9.010;2023-04-15T02:37:13;22.10;;;5.50;;
179;SDS011;78;48.788;9.010;2023-04-15T02:39:40;22.63;;;5.30;;
179;SDS011;78;48.788;9.010;2023-04-15T02:42:06;20.73;;;5.10;;
179;SDS011;78;48.788;9.010;2023-04-15T02:44:33;24.40;;;5.87;;
179;SDS011;78;48.788;9.010;2023-04-15T02:47:00;22.40;;;5.80;;
179;SDS011;78;48.788;9.010;2023-04-15T02:49:27;20.73;;;5.47;;
179;SDS011;78;48.788;9.010;2023-04-15T02:51:54;22.50;;;5.67;;
179;SDS011;78;48.788;9.010;2023-04-15T02:54:22;22.77;;;5.93;;
179;SDS011;78;48.788;9.010;2023-04-15T02:56:48;19.87;;;5.40;;
179;SDS011;78;48.788;9.010;2023-04-15T02:59:14;25.90;;;5.90;;
179;SDS011;78;48.788;9.010;2023-04-15T03:01:40;21.57;;;5.20;;
179;SDS011;78;48.788;9.010;2023-04-15T03:04:07;22.10;;;5.30;;
179;SDS011;78;48.788;9.010;2023-04-15T03:06:33;26.17;;;6.00;;
179;SDS011;78;48.788;9.010;2023-04-15T03:08:59;21.27;;;5.70;;
179;SDS011;78;48.788;9.010;2023-04-15T03:11:26;19.57;;;5.30;;
179;SDS011;78;48.788;9.010;2023-04-15T03:13:52;25.83;;;5.70;;
179;SDS011;78;48.788;9.010;2023-04-15T03:16:18;24.00;;;5.93;;
179;SDS011;78;48.788;9.010;2023-04-15T03:18:45;24.37;;;5.70;;
179;SDS011;78;48.788;9.010;2023-04-15T03:21:11;19.63;;;5.20;;
179;SDS011;78;48.788;9.010;2023-04-15T03:23:37;24.47;;;6.40;;
179;SDS011;78;48.788;9.010;2023-04-15T03:26:03;20.80;;;5.00;;
179;SDS011;78;48.788;9.010;2023-04-15T03:28:29;20.10;;;5.30;;
179;SDS011;78;48.788;9.010;2023-04-15T03:30:56;23.87;;;6.07;;
179;SDS011;78;48.788;9.010;2023-04-15T03:33:22;22.60;;;5.70;;
179;SDS011;78;48.788;9.010;2023-04-15T03:35:49;23.47;;;5.67;;
179;SDS011;78;48.788;9.010;2023-04-15T03:38:15;27.60;;;5.53;;
179;SDS011;78;48.788;9.010;2023-04-15T03:40:41;20.17;;;4.90;;
179;SDS011;78;48.788;9.010;2023-04-15T03:43:07;22.77;;;5.80;;
179;SDS011;78;48.788;9.010;2023-04-15T03:45:33;21.30;;;5.77;;
179;SDS011;78;48.788;9.010;2023-04-15T03:47:59;21.37;;;5.67;;
179;SDS011;78;48.788;9.010;2023-04-15T03:50:25;20.13;;;5.57;;
179;SDS011;78;48.788;9.010;2023-04-15T03:52:51;21.33;;;5.63;;
179;SDS011;78;48.788;9.010;2023-04-15T03:55:17;22.90;;;5.73;;
179;SDS011;78;48.788;9.010;2023-04-15T03:57:44;23.13;;;5.90;;
179;SDS011;78;48.788;9.010;2023-04-15T04:00:10;20.30;;;5.20;;
179;SDS011;78;48.788;9.010;2023-04-15T04:02:36;22.47;;;6.00;;
179;SDS011;78;48.788;9.010;2023-04-15T04:05:03;23.27;;;5.90;;
179;SDS011;78;48.788;9.010;2023-04-15T04:07:29;21.67;;;5.70;;
179;SDS011;78;48.788;9.010;2023-04-15T04:09:58;28.53;;;7.07;;
179;SDS011;78;48.788;9.010;2023-04-15T04:12:24;19.47;;;5.50;;
179;SDS011;78;48.788;9.010;2023-04-15T04:14:49;23.40;;;6.43;;
179;SDS011;78;48.788;9.010;2023-04-15T04:17:16;28.03;;;6.70;;
179;SDS011;78;48.788;9.010;2023-04-15T04:19:42;24.93;;;5.70;;
179;SDS011;78;48.788;9.010;2023-04-15T04:22:07;21.00;;;5.73;;
179;SDS011;78;48.788;9.010;2023-04-15T04:24:33;21.77;;;5.40;;
179;SDS011;78;48.788;9.010;2023-04-15T04:26:59;19.80;;;5.60;;
179;SDS011;78;48.788;9.010;2023-04-15T04:29:26;28.90;;;5.40;;
179;SDS011;78;48.788;9.010;2023-04-15T04:31:52;22.50;;;5.57;;
179;SDS011;78;48.788;9.010;2023-04-15T04:34:18;24.17;;;6.70;;
179;SDS011;78;48.788;9.010;2023-04-15T04:36:44;21.63;;;6.10;;
179;SDS011;78;48.788;9.010;2023-04-15T04:39:10;24.07;;;6.00;;
179;SDS011;78;48.788;9.010;2023-04-15T04:41:36;20.67;;;5.57;;
179;SDS011;78;48.788;9.010;2023-04-15T04:44:02;23.50;;;5.80;;
179;SDS011;78;48.788;9.010;2023-04-15T04:46:28;27.27;;;6.20;;
179;SDS011;78;48.788;9.010;2023-04-15T04:48:54;24.63;;;6.03;;
179;SDS011;78;48.788;9.010;2023-04-15T04:51:20;21.27;;;5.53;;
179;SDS011;78;48.788;9.010;2023-04-15T04:53:46;25.80;;;6.20;;
179;SDS011;78;48.788;9.010;2023-04-15T04:56:12;26.47;;;5.90;;
179;SDS011;78;48.788;9.010;2023-04-15T04:58:38;25.17;;;5.90;;
179;SDS011;78;48.788;9.010;2023-04-15T05:01:04;21.10;;;5.57;;
179;SDS011;78;48.788;9.010;2023-04-15T05:03:30;20.07;;;5.77;;
179;SDS011;78;48.788;9.010;2023-04-15T05:05:56;26.07;;;6.03;;
179;SDS011;78;48.788;9.010;2023-04-15T05:08:22;23.27;;;6.00;;
179;SDS011;78;48.788;9.010;2023-04-15T05:10:48;22.77;;;6.33;;
179;SDS011;78;48.788;9.010;2023-04-15T05:13:14;22.23;;;6.20;;
179;SDS011;78;48.788;9.010;2023-04-15T05:15:40;31.30;;;6.17;;
179;SDS011;78;48.788;9.010;2023-04-15T05:18:07;25.97;;;6.60;;
179;SDS011;78;48.788;9.010;2023-04-15T05:20:33;20.87;;;6.00;;
179;SDS011;78;48.788;9.010;2023-04-15T05:22:59;24.27;;;6.13;;
179;SDS011;78;48.788;9.010;2023-04-15T05:25:25;23.37;;;5.90;;
179;SDS011;78;48.788;9.010;2023-04-15T05:27:52;23.67;;;6.80;;
179;SDS011;78;48.788;9.010;2023-04-15T05:30:20;22.90;;;5.87;;
179;SDS011;78;48.788;9.010;2023-04-15T05:32:46;22.10;;;5.53;;
179;SDS011;78;48.788;9.010;2023-04-15T05:35:12;21.93;;;5.93;;
179;SDS011;78;48.788;9.010;2023-04-15T05:37:38;22.60;;;6.40;;
179;SDS011;78;48.788;9.010;2023-04-15T05:40:04;19.80;;;5.33;;
179;SDS011;78;48.788;9.010;2023-04-15T05:42:30;21.67;;;5.63;;
179;SDS011;78;48.788;9.010;2023-04-15T05:44:57;25.80;;;6.90;;
179;SDS011;78;48.788;9.010;2023-04-15T05:47:23;26.60;;;5.50;;
179;SDS011;78;48.788;9.010;2023-04-15T05:49:51;28.60;;;7.00;;
179;SDS011;78;48.788;9.010;2023-04-15T05:52:17;22.47;;;5.90;;
179;SDS011;78;48.788;9.010;2023-04-15T05:54:43;28.03;;;6.90;;
179;SDS011;78;48.788;9.010;2023-04-15T05:57:09;23.00;;;6.50;;
179;SDS011;78;48.788;9.010;2023-04-15T05:59:36;27.27;;;6.60;;
179;SDS011;78;48.788;9.010;2023-04-15T06:02:03;25.87;;;7.03;;
179;SDS011;78;48.788;9.010;2023-04-15T06:04:30;21.73;;;6.90;;
179;SDS011;78;48.788;9.010;2023-04-15T06:06:56;24.93;;;7.40;;
179;SDS011;78;48.788;9.010;2023-04-15T06:09:22;48.50;;;15.97;;
179;SDS011;78;48.788;9.010;2023-04-15T06:11:48;28.50;;;9.30;;
179;SDS011;78;48.788;9.010;2023-04-15T06:14:14;28.60;;;8.67;;
179;SDS011;78;48.788;9.010;2023-04-15T06:16:40;26.83;;;8.50;;
179;SDS011;78;48.788;9.010;2023-04-15T06:19:07;26.83;;;9.00;;
179;SDS011;78;48.788;9.010;2023-04-15T06:21:34;33.13;;;10.63;;
179;SDS011;78;48.788;9.010;2023-04-15T06:24:00;33.17;;;10.63;;
179;SDS011;78;48.788;9.010;2023-04-15T06:26:26;31.07;;;10.00;;
179;SDS011;78;48.788;9.010;2023-04-15T06:28:52;29.17;;;9.90;;
179;SDS011;78;48.788;9.010;2023-04-15T06:31:18;28.63;;;9.70;;
179;SDS011;78;48.788;9.010;2023-04-15T06:33:44;30.47;;;10.87;;
179;SDS011;78;48.788;9.010;2023-04-15T06:36:10;32.00;;;10.87;;
179;SDS011;78;48.788;9.010;2023-04-15T06:38:36;28.90;;;10.70;;
179;SDS011;78;48.788;9.010;2023-04-15T06:41:03;33.00;;;11.27;;
179;SDS011;78;48.788;9.010;2023-04-15T06:43:29;28.93;;;9.53;;
179;SDS011;78;48.788;9.010;2023-04-15T06:45:55;31.50;;;9.20;;
179;SDS011;78;48.788;9.010;2023-04-15T06:48:22;31.90;;;10.17;;
179;SDS011;78;48.788;9.010;2023-04-15T06:50:48;30.23;;;9.80;;
179;SDS011;78;48.788;9.010;2023-04-15T06:53:14;27.57;;;9.10;;
179;SDS011;78;48.788;9.010;2023-04-15T06:55:40;30.57;;;8.67;;
179;SDS011;78;48.788;9.010;2023-04-15T06:58:06;27.93;;;9.27;;
179;SDS011;78;48.788;9.010;2023-04-15T07:00:32;30.17;;;9.07;;
179;SDS011;78;48.788;9.010;2023-04-15T07:02:59;30.10;;;10.30;;
179;SDS011;78;48.788;9.010;2023-04-15T07:05:28;29.13;;;10.60;;
179;SDS011;78;48.788;9.010;2023-04-15T07:07:55;31.07;;;9.67;;
179;SDS011;78;48.788;9.010;2023-04-15T07:10:21;26.83;;;9.70;;
179;SDS011;78;48.788;9.010;2023-04-15T07:12:48;29.77;;;9.60;;
179;SDS011;78;48.788;9.010;2023-04-15T07:15:15;28.27;;;9.57;;
179;SDS011;78;48.788;9.010;2023-04-15T07:17:41;27.83;;;8.67;;
179;SDS011;78;48.788;9.010;2023-04-15T07:20:08;28.73;;;8.80;;
179;SDS011;78;48.788;9.010;2023-04-15T07:22:34;26.80;;;8.13;;
179;SDS011;78;48.788;9.010;2023-04-15T07:25:00;25.80;;;7.27;;
179;SDS011;78;48.788;9.010;2023-04-15T07:27:27;26.60;;;7.63;;
179;SDS011;78;48.788;9.010;2023-04-15T07:29:53;26.87;;;7.90;;
179;SDS011;78;48.788;9.010;2023-04-15T07:32:19;27.10;;;7.57;;
179;SDS011;78;48.788;9.010;2023-04-15T07:34:46;23.00;;;6.27;;
179;SDS011;78;48.788;9.010;2023-04-15T07:37:12;22.40;;;6.40;;
179;SDS011;78;48.788;9.010;2023-04-15T07:39:38;25.47;;;7.10;;
179;SDS011;78;48.788;9.010;2023-04-15T07:42:04;25.17;;;6.70;;
179;SDS011;78;48.788;9.010;2023-04-15T07:44:31;23.80;;;6.03;;
179;SDS011;78;48.788;9.010;2023-04-15T07:46:57;23.40;;;6.43;;
179;SDS011;78;48.788;9.010;2023-04-15T07:49:23;24.20;;;5.90;;
179;SDS011;78;48.788;9.010;2023-04-15T07:51:50;22.17;;;6.03;;
179;SDS011;78;48.788;9.010;2023-04-15T07:54:16;21.80;;;6.00;;
179;SDS011;78;48.788;9.010;2023-04-15T07:56:42;24.60;;;7.13;;
179;SDS011;78;48.788;9.010;2023-04-15T07:59:09;25.00;;;6.47;;
179;SDS011;78;48.788;9.010;2023-04-15T08:01:35;22.77;;;5.90;;
179;SDS011;78;48.788;9.010;2023-04-15T08:04:03;22.17;;;5.87;;
179;SDS011;78;48.788;9.010;2023-04-15T08:06:29;20.60;;;5.70;;
179;SDS011;78;48.788;9.010;2023-04-15T08:08:56;23.87;;;5.30;;
179;SDS011;78;48.788;9.010;2023-04-15T08:11:23;22.03;;;5.50;;
179;SDS011;78;48.788;9.010;2023-04-15T08:13:49;20.87;;;5.20;;
179;SDS011;78;48.788;9.010;2023-04-15T08:16:17;22.30;;;5.83;;
179;SDS011;78;48.788;9.010;2023-04-15T08:18:43;24.43;;;5.20;;
179;SDS011;78;48.788;9.010;2023-04-15T08:21:10;22.50;;;4.90;;
179;SDS011;78;48.788;9.010;2023-04-15T08:23:36;20.37;;;4.70;;
179;SDS011;78;48.788;9.010;2023-04-15T08:26:03;21.67;;;4.43;;
179;SDS011;78;48.788;9.010;2023-04-15T08:28:30;21.40;;;4.67;;
179;SDS011;78;48.788;9.010;2023-04-15T08:30:56;23.73;;;4.50;;
179;SDS011;78;48.788;9.010;2023-04-15T08:33:22;17.73;;;3.67;;
179;SDS011;78;48.788;9.010;2023-04-15T08:35:48;20.40;;;4.03;;
179;SDS011;78;48.788;9.010;2023-04-15T08:38:15;19.70;;;3.90;;
179;SDS011;78;48.788;9.010;2023-04-15T08:40:43;20.10;;;4.00;;
179;SDS011;78;48.788;9.010;2023-04-15T08:43:10;26.63;;;4.43;;
179;SDS011;78;48.788;9.010;2023-04-15T08:45:37;27.77;;;4.73;;
179;SDS011;78;48.788;9.010;2023-04-15T08:48:04;22.40;;;4.07;;
179;SDS011;78;48.788;9.010;2023-04-15T08:50:31;19.97;;;3.80;;
179;SDS011;78;48.788;9.010;2023-04-15T08:52:58;19.97;;;4.10;;
179;SDS011;78;48.788;9.010;2023-04-15T08:55:25;20.13;;;4.20;;
179;SDS011;78;48.788;9.010;2023-04-15T08:57:56;19.50;;;4.07;;
179;SDS011;78;48.788;9.010;2023-04-15T09:00:23;20.63;;;4.20;;
179;SDS011;78;48.788;9.010;2023-04-15T09:02:51;19.27;;;3.90;;
179;SDS011;78;48.788;9.010;2023-04-15T09:05:17;22.67;;;4.00;;
179;SDS011;78;48.788;9.010;2023-04-15T09:07:45;18.40;;;3.60;;
179;SDS011;78;48.788;9.010;2023-04-15T09:10:11;19.30;;;3.50;;
179;SDS011;78;48.788;9.010;2023-04-15T09:12:38;18.63;;;3.73;;
179;SDS011;78;48.788;9.010;2023-04-15T09:15:05;19.40;;;4.57;;
179;SDS011;78;48.788;9.010;2023-04-15T09:17:32;19.97;;;3.60;;
179;SDS011;78;48.788;9.010;2023-04-15T09:20:14;20.67;;;3.97;;
179;SDS011;78;48.788;9.010;2023-04-15T09:22:41;20.63;;;4.87;;
179;SDS011;78;48.788;9.010;2023-04-15T09:30:15;18.07;;;4.30;;
179;SDS011;78;48.788;9.010;2023-04-15T09:32:54;18.67;;;4.47;;
179;SDS011;78;48.788;9.010;2023-04-15T09:35:21;18.20;;;4.20;;
179;SDS011;78;48.788;9.010;2023-04-15T09:37:48;18.30;;;4.33;;
179;SDS011;78;48.788;9.010;2023-04-15T09:40:29;20.03;;;4.80;;
179;SDS011;78;48.788;9.010;2023-04-15T09:42:56;17.60;;;3.83;;
179;SDS011;78;48.788;9.010;2023-04-15T09:45:23;19.10;;;4.40;;
179;SDS011;78;48.788;9.010;2023-04-15T09:47:49;18.97;;;4.40;;
179;SDS011;78;48.788;9.010;2023-04-15T09:50:17;16.50;;;3.87;;
179;SDS011;78;48.788;9.010;2023-04-15T09:52:43;20.50;;;4.23;;
179;SDS011;78;48.788;9.010;2023-04-15T09:55:10;18.80;;;4.40;;
179;SDS011;78;48.788;9.010;2023-04-15T09:57:37;17.90;;;4.10;;
179;SDS011;78;48.788;9.010;2023-04-15T10:00:06;22.57;;;5.27;;
179;SDS011;78;48.788;9.010;2023-04-15T10:02:33;24.30;;;4.53;;
179;SDS011;78;48.788;9.010;2023-04-15T10:05:03;19.70;;;4.13;;
179;SDS011;78;48.788;9.010;2023-04-15T10:07:30;18.47;;;4.17;;
179;SDS011;78;48.788;9.010;2023-04-15T10:09:57;19.40;;;4.33;;
179;SDS011;78;48.788;9.010;2023-04-15T10:12:24;27.67;;;9.40;;
179;SDS011;78;48.788;9.010;2023-04-15T10:15:02;18.97;;;4.90;;
179;SDS011;78;48.788;9.010;2023-04-15T10:17:32;18.60;;;4.47;;
179;SDS011;78;48.788;9.010;2023-04-15T10:19:59;19.37;;;4.77;;
179;SDS011;78;48.788;9.010;2023-04-15T10:22:26;21.70;;;5.10;;
179;SDS011;78;48.788;9.010;2023-04-15T10:24:52;22.43;;;5.30;;
179;SDS011;78;48.788;9.010;2023-04-15T10:27:19;21.10;;;5.23;;
179;SDS011;78;48.788;9.010;2023-04-15T10:29:46;21.13;;;5.60;;
179;SDS011;78;48.788;9.010;2023-04-15T10:32:13;20.43;;;5.27;;
179;SDS011;78;48.788;9.010;2023-04-15T10:34:41;20.20;;;5.67;;
179;SDS011;78;48.788;9.010;2023-04-15T10:37:08;22.80;;;5.37;;
179;SDS011;78;48.788;9.010;2023-04-15T10:39:38;21.50;;;5.70;;
179;SDS011;78;48.788;9.010;2023-04-15T10:42:06;22.50;;;5.40;;
179;SDS011;78;48.788;9.010;2023-04-15T10:44:32;20.93;;;6.17;;
179;SDS011;78;48.788;9.010;2023-04-15T10:47:03;25.67;;;7.53;;
179;SDS011;78;48.788;9.010;2023-04-15T10:49:29;21.83;;;6.30;;
179;SDS011;78;48.788;9.010;2023-04-15T10:51:56;22.93;;;5.57;;
179;SDS011;78;48.788;9.010;2023-04-15T10:57:06;22.60;;;4.97;;
179;SDS011;78;48.788;9.010;2023-04-15T10:59:34;23.13;;;5.90;;
179;SDS011;78;48.788;9.010;2023-04-15T11:02:03;21.63;;;5.03;;
179;SDS011;78;48.788;9.010;2023-04-15T11:07:15;20.57;;;4.90;;
179;SDS011;78;48.788;9.010;2023-04-15T11:09:41;18.20;;;4.50;;
179;SDS011;78;48.788;9.010;2023-04-15T11:12:07;24.53;;;5.20;;
179;SDS011;78;48.788;9.010;2023-04-15T11:14:36;25.40;;;5.03;;
179;SDS011;78;48.788;9.010;2023-04-15T11:17:04;20.17;;;5.00;;
179;SDS011;78;48.788;9.010;2023-04-15T11:19:36;24.77;;;5.27;;
179;SDS011;78;48.788;9.010;2023-04-15T11:22:08;19.73;;;5.20;;
179;SDS011;78;48.788;9.010;2023-04-15T11:24:34;19.20;;;4.97;;
179;SDS011;78;48.788;9.010;2023-04-15T11:27:00;22.70;;;4.93;;
179;SDS011;78;48.788;9.010;2023-04-15T11:29:30;21.07;;;5.03;;
179;SDS011;78;48.788;9.010;2023-04-15T11:32:07;20.03;;;5.20;;
179;SDS011;78;48.788;9.010;2023-04-15T11:34:34;21.63;;;5.70;;
179;SDS011;78;48.788;9.010;2023-04-15T11:37:03;20.73;;;5.07;;
179;SDS011;78;48.788;9.010;2023-04-15T11:39:29;24.10;;;5.10;;
179;SDS011;78;48.788;9.010;2023-04-15T11:41:56;22.50;;;4.43;;
179;SDS011;78;48.788;9.010;2023-04-15T11:44:22;18.10;;;4.20;;
179;SDS011;78;48.788;9.010;2023-04-15T11:46:49;28.70;;;4.37;;
179;SDS011;78;48.788;9.010;2023-04-15T11:49:33;20.90;;;4.77;;
179;SDS011;78;48.788;9.010;2023-04-15T11:52:09;21.97;;;5.13;;
179;SDS011;78;48.788;9.010;2023-04-15T11:54:35;24.03;;;5.80;;
179;SDS011;78;48.788;9.010;2023-04-15T11:57:01;22.50;;;4.83;;
179;SDS011;78;48.788;9.010;2023-04-15T11:59:40;22.97;;;5.90;;
179;SDS011;78;48.788;9.010;2023-04-15T12:02:12;25.30;;;5.30;;
179;SDS011;78;48.788;9.010;2023-04-15T12:04:38;23.70;;;6.20;;
179;SDS011;78;48.788;9.010;2023-04-15T12:07:04;22.80;;;6.23;;
179;SDS011;78;48.788;9.010;2023-04-15T12:09:31;21.07;;;6.27;;
179;SDS011;78;48.788;9.010;2023-04-15T12:12:02;20.67;;;6.30;;
179;SDS011;78;48.788;9.010;2023-04-15T12:14:28;22.97;;;6.50;;
179;SDS011;78;48.788;9.010;2023-04-15T12:17:01;25.57;;;6.30;;
179;SDS011;78;48.788;9.010;2023-04-15T12:19:29;22.00;;;5.70;;
179;SDS011;78;48.788;9.010;2023-04-15T12:22:17;21.80;;;5.80;;
179;SDS011;78;48.788;9.010;2023-04-15T12:24:44;23.60;;;5.30;;
179;SDS011;78;48.788;9.010;2023-04-15T12:27:14;22.80;;;5.77;;
179;SDS011;78;48.788;9.010;2023-04-15T12:29:40;22.37;;;6.50;;
179;SDS011;78;48.788;9.010;2023-04-15T12:32:10;23.87;;;6.60;;
179;SDS011;78;48.788;9.010;2023-04-15T12:34:40;24.53;;;7.00;;
179;SDS011;78;48.788;9.010;2023-04-15T12:37:07;24.97;;;6.80;;
179;SDS011;78;48.788;9.010;2023-04-15T12:39:40;19.37;;;5.33;;
179;SDS011;78;48.788;9.010;2023-04-15T12:42:07;20.63;;;5.47;;
179;SDS011;78;48.788;9.010;2023-04-15T12:44:34;21.17;;;5.70;;
179;SDS011;78;48.788;9.010;2023-04-15T12:47:00;21.63;;;5.77;;
179;SDS011;78;48.788;9.010;2023-04-15T12:49:26;18.80;;;5.30;;
179;SDS011;78;48.788;9.010;2023-04-15T12:51:53;20.07;;;5.40;;
179;SDS011;78;48.788;9.010;2023-04-15T12:54:20;19.80;;;5.70;;
179;SDS011;78;48.788;9.010;2023-04-15T12:56:46;21.73;;;5.77;;
179;SDS011;78;48.788;9.010;2023-04-15T12:59:13;21.30;;;5.90;;
179;SDS011;78;48.788;9.010;2023-04-15T13:01:42;21.40;;;5.13;;
179;SDS011;78;48.788;9.010;2023-04-15T13:04:08;21.13;;;5.80;;
179;SDS011;78;48.788;9.010;2023-04-15T13:06:34;19.70;;;5.40;;
179;SDS011;78;48.788;9.010;2023-04-15T13:09:00;20.20;;;5.53;;
179;SDS011;78;48.788;9.010;2023-04-15T13:11:27;18.93;;;5.33;;
179;SDS011;78;48.788;9.010;2023-04-15T13:13:55;24.73;;;5.93;;
179;SDS011;78;48.788;9.010;2023-04-15T13:16:22;24.73;;;5.60;;
179;SDS011;78;48.788;9.010;2023-04-15T13:18:48;20.30;;;5.60;;
179;SDS011;78;48.788;9.010;2023-04-15T13:21:15;20.57;;;5.30;;
179;SDS011;78;48.788;9.010;2023-04-15T13:23:41;19.40;;;4.97;;
179;SDS011;78;48.788;9.010;2023-04-15T13:26:07;20.37;;;5.20;;
179;SDS011;78;48.788;9.010;2023-04-15T13:28:33;19.30;;;5.30;;
179;SDS011;78;48.788;9.010;2023-04-15T13:30:59;19.70;;;5.10;;
179;SDS011;78;48.788;9.010;2023-04-15T13:33:25;19.73;;;5.30;;
179;SDS011;78;48.788;9.010;2023-04-15T13:35:53;21.50;;;5.40;;
179;SDS011;78;48.788;9.010;2023-04-15T13:38:19;21.40;;;5.63;;
179;SDS011;78;48.788;9.010;2023-04-15T13:40:45;18.30;;;5.10;;
179;SDS011;78;48.788;9.010;2023-04-15T13:43:11;21.00;;;4.93;;
179;SDS011;78;48.788;9.010;2023-04-15T13:45:37;21.23;;;4.47;;
179;SDS011;78;48.788;9.010;2023-04-15T13:48:04;18.93;;;4.90;;
179;SDS011;78;48.788;9.010;2023-04-15T13:50:30;20.37;;;4.77;;
179;SDS011;78;48.788;9.010;2023-04-15T13:52:56;19.53;;;4.70;;
179;SDS011;78;48.788;9.010;2023-04-15T13:55:22;20.40;;;4.93;;
179;SDS011;78;48.788;9.010;2023-04-15T13:57:48;24.47;;;7.00;;
179;SDS011;78;48.788;9.010;2023-04-15T14:00:14;17.87;;;4.77;;
179;SDS011;78;48.788;9.010;2023-04-15T14:02:40;19.30;;;3.73;;
179;SDS011;78;48.788;9.010;2023-04-15T14:05:07;16.70;;;3.00;;
179;SDS011;78;48.788;9.010;2023-04-15T14:07:33;16.23;;;3.10;;
179;SDS011;78;48.788;9.010;2023-04-15T14:09:59;16.40;;;3.30;;
179;SDS011;78;48.788;9.010;2023-04-15T14:12:25;17.50;;;3.80;;
179;SDS011;78;48.788;9.010;2023-04-15T14:14:51;17.60;;;4.17;;
179;SDS011;78;48.788;9.010;2023-04-15T14:17:17;18.30;;;3.90;;
179;SDS011;78;48.788;9.010;2023-04-15T14:19:43;20.30;;;4.00;;
179;SDS011;78;48.788;9.010;2023-04-15T14:22:09;18.20;;;4.00;;
179;SDS011;78;48.788;9.010;2023-04-15T14:24:36;20.93;;;4.47;;
179;SDS011;78;48.788;9.010;2023-04-15T14:27:02;17.77;;;3.73;;
179;SDS011;78;48.788;9.010;2023-04-15T14:29:28;20.13;;;4.70;;
179;SDS011;78;48.788;9.010;2023-04-15T14:31:55;19.67;;;4.60;;
179;SDS011;78;48.788;9.010;2023-04-15T14:34:22;18.17;;;4.23;;
179;SDS011;78;48.788;9.010;2023-04-15T14:36:49;22.57;;;4.60;;
179;SDS011;78;48.788;9.010;2023-04-15T14:39:16;19.53;;;5.00;;
179;SDS011;78;48.788;9.010;2023-04-15T14:41:42;19.60;;;4.90;;
179;SDS011;78;48.788;9.010;2023-04-15T14:44:08;19.70;;;4.93;;
179;SDS011;78;48.788;9.010;2023-04-15T14:46:35;19.17;;;5.07;;
179;SDS011;78;48.788;9.010;2023-04-15T14:49:01;24.90;;;4.90;;
179;SDS011;78;48.788;9.010;2023-04-15T14:51:27;19.37;;;4.60;;
179;SDS011;78;48.788;9.010;2023-04-15T14:53:53;19.60;;;5.43;;
179;SDS011;78;48.788;9.010;2023-04-15T14:56:19;18.27;;;4.73;;
179;SDS011;78;48.788;9.010;2023-04-15T14:58:45;20.57;;;5.60;;
179;SDS011;78;48.788;9.010;2023-04-15T15:01:11;22.37;;;5.37;;
179;SDS011;78;48.788;9.010;2023-04-15T15:03:37;19.53;;;5.50;;
179;SDS011;78;48.788;9.010;2023-04-15T15:06:04;23.30;;;5.60;;
179;SDS011;78;48.788;9.010;2023-04-15T15:08:30;22.13;;;5.30;;
179;SDS011;78;48.788;9.010;2023-04-15T15:10:56;20.70;;;5.53;;
179;SDS011;78;48.788;9.010;2023-04-15T15:13:22;27.53;;;6.70;;
179;SDS011;78;48.788;9.010;2023-04-15T15:15:49;25.13;;;5.97;;
179;SDS011;78;48.788;9.010;2023-04-15T15:18:15;28.30;;;5.73;;
179;SDS011;78;48.788;9.010;2023-04-15T15:20:42;19.83;;;5.13;;
179;SDS011;78;48.788;9.010;2023-04-15T15:23:08;18.77;;;5.23;;
179;SDS011;78;48.788;9.010;2023-04-15T15:25:35;19.37;;;5.73;;
179;SDS011;78;48.788;9.010;2023-04-15T15:28:01;21.80;;;5.77;;
179;SDS011;78;48.788;9.010;2023-04-15T15:30:27;22.53;;;6.80;;
179;SDS011;78;48.788;9.010;2023-04-15T15:32:54;34.87;;;9.60;;
179;SDS011;78;48.788;9.010;2023-04-15T15:35:21;18.90;;;4.50;;
179;SDS011;78;48.788;9.010;2023-04-15T15:37:47;26.80;;;5.67;;
179;SDS011;78;48.788;9.010;2023-04-15T15:40:13;20.93;;;4.03;;
179;SDS011;78;48.788;9.010;2023-04-15T15:42:39;19.93;;;4.20;;
179;SDS011;78;48.788;9.010;2023-04-15T15:45:08;20.50;;;5.73;;
179;SDS011;78;48.788;9.010;2023-04-15T15:47:34;21.93;;;4.30;;
179;SDS011;78;48.788;9.010;2023-04-15T15:50:00;19.57;;;4.27;;
179;SDS011;78;48.788;9.010;2023-04-15T15:52:27;22.33;;;4.50;;